sensor_id;sensor_type;location;lat;lon;timestamp;pressure;altitude;pressure_sealevel;temperature;humidity
44675;BME280;30388;52.038;-1.478;2023-05-23T00:00:53;66029.69;;;12.48;100.00
44675;BME280;30388;52.038;-1.478;2023-05-23T00:03:20;66022.18;;;12.60;100.00
44675;BME280;30388;52.038;-1.478;2023-05-23T00:05:49;66027.55;;;12.44;100.00
44675;BME280;30388;52.038;-1.478;2023-05-23T00:08:18;66031.78;;;12.73;100.00
44675;BME280;30388;52.038;-1.478;2023-05-23T00:10:46;66037.37;;;12.57;100.00
44675;BME280;30388;52.038;-1.478;2023-05-23T00:13:14;66022.75;;;12.61;100.00
44675;BME280;30388;52.038;-1.478;2023-05-23T00:15:41;66043.38;;;12.39;100.00
44675;BME280;30388;52.038;-1.478;2023-05-23T00:18:09;66040.08;;;12.82;100.00
44675;BME280;30388;52.038;-1.478;2023-05-23T00:20:38;66041.43;;;12.85;100.00
44675;BME280;30388;52.038;-1.478;2023-05-23T00:23:06;66026.24;;;12.66;100.00
44675;BME280;30388;52.038;-1.478;2023-05-23T00:25:33;66059.84;;;13.08;100.00
44675;BME280;30388;52.038;-1.478;2023-05-23T00:28:03;66000.45;;;12.33;100.00
44675;BME280;30388;52.038;-1.478;2023-05-23T00:30:31;66000.74;;;12.33;100.00
44675;BME280;30388;52.038;-1.478;2023-05-23T00:33:00;66007.21;;;12.41;100.00
44675;BME280;30388;52.038;-1.478;2023-05-23T00:35:27;66002.89;;;12.36;100.00
44675;BME280;30388;52.038;-1.478;2023-05-23T00:37:55;65993.81;;;12.25;100.00
44675;BME280;30388;52.038;-1.478;2023-05-23T00:40:22;66024.97;;;12.64;100.00
44675;BME280;30388;52.038;-1.478;2023-05-23T00:42:50;66026.20;;;12.44;100.00
44675;BME280;30388;52.038;-1.478;2023-05-23T00:45:18;66012.10;;;12.26;100.00
44675;BME280;30388;52.038;-1.478;2023-05-23T00:47:46;66030.99;;;12.72;100.00
44675;BME280;30388;52.038;-1.478;2023-05-23T00:50:14;65995.54;;;12.49;100.00
44675;BME280;30388;52.038;-1.478;2023-05-23T00:52:44;65917.32;;;11.29;100.00
44675;BME280;30388;52.038;-1.478;2023-05-23T00:55:12;65929.01;;;11.44;100.00
44675;BME280;30388;52.038;-1.478;2023-05-23T00:57:40;65942.97;;;11.83;100.00
44675;BME280;30388;52.038;-1.478;2023-05-23T01:00:08;65984.70;;;12.14;100.00
44675;BME280;30388;52.038;-1.478;2023-05-23T01:02:39;65974.41;;;12.23;100.00
44675;BME280;30388;52.038;-1.478;2023-05-23T01:05:09;66000.45;;;12.33;100.00
44675;BME280;30388;52.038;-1.478;2023-05-23T01:07:37;65974.13;;;12.00;100.00
44675;BME280;30388;52.038;-1.478;2023-05-23T01:10:05;65992.27;;;12.23;100.00
44675;BME280;30388;52.038;-1.478;2023-05-23T01:12:40;66006.26;;;12.41;100.00
44675;BME280;30388;52.038;-1.478;2023-05-23T01:15:12;66067.84;;;13.19;100.00
44675;BME280;30388;52.038;-1.478;2023-05-23T01:17:46;66046.34;;;12.69;100.00
44675;BME280;30388;52.038;-1.478;2023-05-23T01:20:20;66072.16;;;13.02;100.00
44675;BME280;30388;52.038;-1.478;2023-05-23T01:23:04;66103.44;;;13.14;100.00
44675;BME280;30388;52.038;-1.478;2023-05-23T01:25:47;66137.03;;;13.57;100.00
44675;BME280;30388;52.038;-1.478;2023-05-23T01:28:19;66154.06;;;13.78;100.00
44675;BME280;30388;52.038;-1.478;2023-05-23T01:30:51;66115.35;;;13.30;100.00
44675;BME280;30388;52.038;-1.478;2023-05-23T01:33:21;66167.47;;;13.96;100.00
44675;BME280;30388;52.038;-1.478;2023-05-23T01:35:50;66158.76;;;13.84;100.00
44675;BME280;30388;52.038;-1.478;2023-05-23T01:38:18;66179.59;;;13.66;100.00
44675;BME280;30388;52.038;-1.478;2023-05-23T01:40:46;66199.76;;;14.14;100.00
44675;BME280;30388;52.038;-1.478;2023-05-23T01:43:13;66191.87;;;14.04;100.00
44675;BME280;30388;52.038;-1.478;2023-05-23T01:45:40;66225.05;;;14.68;100.00
44675;BME280;30388;52.038;-1.478;2023-05-23T01:48:08;66190.14;;;14.01;100.00
44675;BME280;30388;52.038;-1.478;2023-05-23T01:50:38;66223.57;;;14.44;100.00
44675;BME280;30388;52.038;-1.478;2023-05-23T01:53:07;66202.85;;;14.18;100.00
44675;BME280;30388;52.038;-1.478;2023-05-23T01:55:35;66231.56;;;14.54;100.00
44675;BME280;30388;52.038;-1.478;2023-05-23T01:58:02;66256.70;;;14.63;100.00
44675;BME280;30388;52.038;-1.478;2023-05-23T02:00:31;66241.76;;;14.89;100.00
44675;BME280;30388;52.038;-1.478;2023-05-23T02:02:58;66241.99;;;14.44;100.00
44675;BME280;30388;52.038;-1.478;2023-05-23T02:05:26;66238.99;;;14.40;100.00
44675;BME280;30388;52.038;-1.478;2023-05-23T02:07:54;66250.82;;;14.55;100.00
44675;BME280;30388;52.038;-1.478;2023-05-23T02:10:22;66227.70;;;14.27;100.00
44675;BME280;30388;52.038;-1.478;2023-05-23T02:12:50;66235.74;;;14.37;100.00
44675;BME280;30388;52.038;-1.478;2023-05-23T02:15:18;66204.28;;;13.97;100.00
44675;BME280;30388;52.038;-1.478;2023-05-23T02:17:45;66235.09;;;14.36;100.00
44675;BME280;30388;52.038;-1.478;2023-05-23T02:20:13;66188.46;;;14.21;100.00
44675;BME280;30388;52.038;-1.478;2023-05-23T02:22:41;66204.95;;;14.21;100.00
44675;BME280;30388;52.038;-1.478;2023-05-23T02:25:08;66236.99;;;14.38;100.00
44675;BME280;30388;52.038;-1.478;2023-05-23T02:27:35;66114.38;;;13.06;100.00
44675;BME280;30388;52.038;-1.478;2023-05-23T02:30:03;66161.51;;;13.43;100.00
44675;BME280;30388;52.038;-1.478;2023-05-23T02:32:31;66166.48;;;13.94;100.00
44675;BME280;30388;52.038;-1.478;2023-05-23T02:34:58;66182.71;;;13.92;100.00
44675;BME280;30388;52.038;-1.478;2023-05-23T02:37:26;66249.97;;;14.54;100.00
44675;BME280;30388;52.038;-1.478;2023-05-23T02:39:55;66266.03;;;14.75;100.00
44675;BME280;30388;52.038;-1.478;2023-05-23T02:42:22;66262.06;;;14.69;100.00
44675;BME280;30388;52.038;-1.478;2023-05-23T02:44:49;66236.36;;;14.59;100.00
44675;BME280;30388;52.038;-1.478;2023-05-23T02:47:18;66199.41;;;14.36;100.00
44675;BME280;30388;52.038;-1.478;2023-05-23T02:49:45;66209.86;;;14.48;100.00
44675;BME280;30388;52.038;-1.478;2023-05-23T02:52:12;66225.61;;;14.46;100.00
44675;BME280;30388;52.038;-1.478;2023-05-23T02:54:41;66215.35;;;14.11;100.00
44675;BME280;30388;52.038;-1.478;2023-05-23T02:57:08;66209.29;;;14.03;100.00
44675;BME280;30388;52.038;-1.478;2023-05-23T02:59:35;66217.32;;;14.36;100.00
44675;BME280;30388;52.038;-1.478;2023-05-23T03:02:03;66180.61;;;13.89;100.00
44675;BME280;30388;52.038;-1.478;2023-05-23T03:04:30;66171.46;;;13.78;100.00
44675;BME280;30388;52.038;-1.478;2023-05-23T03:06:57;66166.03;;;13.93;100.00
44675;BME280;30388;52.038;-1.478;2023-05-23T03:09:24;66162.55;;;13.67;100.00
44675;BME280;30388;52.038;-1.478;2023-05-23T03:11:53;66164.67;;;13.91;100.00
44675;BME280;30388;52.038;-1.478;2023-05-23T03:14:20;66127.97;;;13.45;100.00
44675;BME280;30388;52.038;-1.478;2023-05-23T03:16:47;66136.32;;;13.56;100.00
44675;BME280;30388;52.038;-1.478;2023-05-23T03:19:15;66089.38;;;12.96;100.00
44675;BME280;30388;52.038;-1.478;2023-05-23T03:21:43;66097.96;;;13.34;100.00
44675;BME280;30388;52.038;-1.478;2023-05-23T03:24:09;66103.57;;;13.41;100.00
44675;BME280;30388;52.038;-1.478;2023-05-23T03:26:37;66097.48;;;13.07;100.00
44675;BME280;30388;52.038;-1.478;2023-05-23T03:29:05;66094.28;;;13.03;100.00
44675;BME280;30388;52.038;-1.478;2023-05-23T03:31:32;66068.54;;;13.18;100.00
44675;BME280;30388;52.038;-1.478;2023-05-23T03:34:00;66028.50;;;12.69;100.00
44675;BME280;30388;52.038;-1.478;2023-05-23T03:36:27;65994.52;;;12.04;100.00
44675;BME280;30388;52.038;-1.478;2023-05-23T03:38:56;66010.76;;;12.46;100.00
44675;BME280;30388;52.038;-1.478;2023-05-23T03:41:23;66015.06;;;12.29;100.00
44675;BME280;30388;52.038;-1.478;2023-05-23T03:43:50;66035.85;;;12.56;100.00
44675;BME280;30388;52.038;-1.478;2023-05-23T03:46:18;66015.53;;;12.03;100.00
44675;BME280;30388;52.038;-1.478;2023-05-23T03:48:46;66023.76;;;12.64;100.00
44675;BME280;30388;52.038;-1.478;2023-05-23T03:51:13;66027.25;;;12.18;100.00
44675;BME280;30388;52.038;-1.478;2023-05-23T03:53:41;66032.29;;;12.73;100.00
44675;BME280;30388;52.038;-1.478;2023-05-23T03:56:08;65999.53;;;12.32;100.00
44675;BME280;30388;52.038;-1.478;2023-05-23T03:58:36;65993.25;;;12.46;100.00
44675;BME280;30388;52.038;-1.478;2023-05-23T04:01:03;65996.37;;;12.29;100.00
44675;BME280;30388;52.038;-1.478;2023-05-23T04:03:31;65994.44;;;12.26;100.00
44675;BME280;30388;52.038;-1.478;2023-05-23T04:05:59;65995.70;;;12.28;100.00
44675;BME280;30388;52.038;-1.478;2023-05-23T04:08:26;66001.28;;;12.35;100.00
44675;BME280;30388;52.038;-1.478;2023-05-23T04:10:53;66010.40;;;12.46;100.00
44675;BME280;30388;52.038;-1.478;2023-05-23T04:13:21;66020.04;;;12.81;100.00
44675;BME280;30388;52.038;-1.478;2023-05-23T04:15:49;66032.96;;;12.75;100.00
44675;BME280;30388;52.038;-1.478;2023-05-23T04:18:16;66052.52;;;12.51;100.00
44675;BME280;30388;52.038;-1.478;2023-05-23T04:20:45;66052.72;;;12.99;100.00
44675;BME280;30388;52.038;-1.478;2023-05-23T04:23:13;66077.04;;;13.08;100.00
44675;BME280;30388;52.038;-1.478;2023-05-23T04:25:40;66074.16;;;12.78;100.00
44675;BME280;30388;52.038;-1.478;2023-05-23T04:28:09;66022.72;;;12.62;100.00
44675;BME280;30388;52.038;-1.478;2023-05-23T04:30:37;66058.72;;;12.58;100.00
44675;BME280;30388;52.038;-1.478;2023-05-23T04:33:04;66066.74;;;12.95;100.00
44675;BME280;30388;52.038;-1.478;2023-05-23T04:35:32;66018.16;;;12.56;100.00
44675;BME280;30388;52.038;-1.478;2023-05-23T04:38:00;66020.75;;;12.59;100.00
44675;BME280;30388;52.038;-1.478;2023-05-23T04:40:28;66033.90;;;12.75;100.00
44675;BME280;30388;52.038;-1.478;2023-05-23T04:42:57;66074.66;;;12.77;100.00
44675;BME280;30388;52.038;-1.478;2023-05-23T04:45:24;66101.75;;;13.11;100.00
44675;BME280;30388;52.038;-1.478;2023-05-23T04:47:51;66102.29;;;13.13;100.00
44675;BME280;30388;52.038;-1.478;2023-05-23T04:50:19;66071.20;;;12.74;100.00
44675;BME280;30388;52.038;-1.478;2023-05-23T04:52:46;66054.00;;;13.01;100.00
44675;BME280;30388;52.038;-1.478;2023-05-23T04:55:13;66021.91;;;12.38;100.00
44675;BME280;30388;52.038;-1.478;2023-05-23T04:57:40;66061.88;;;13.10;100.00
44675;BME280;30388;52.038;-1.478;2023-05-23T05:00:10;66080.24;;;12.85;100.00
44675;BME280;30388;52.038;-1.478;2023-05-23T05:02:38;66123.23;;;13.40;100.00
44675;BME280;30388;52.038;-1.478;2023-05-23T05:05:06;66099.67;;;13.09;100.00
44675;BME280;30388;52.038;-1.478;2023-05-23T05:07:33;66096.32;;;13.06;100.00
44675;BME280;30388;52.038;-1.478;2023-05-23T05:10:01;66145.92;;;13.68;100.00
44675;BME280;30388;52.038;-1.478;2023-05-23T05:12:28;66155.79;;;13.81;100.00
44675;BME280;30388;52.038;-1.478;2023-05-23T05:14:56;66157.11;;;13.82;100.00
44675;BME280;30388;52.038;-1.478;2023-05-23T05:17:24;66157.02;;;13.60;100.00
44675;BME280;30388;52.038;-1.478;2023-05-23T05:19:51;66149.01;;;13.72;100.00
44675;BME280;30388;52.038;-1.478;2023-05-23T05:22:18;66166.90;;;13.94;100.00
44675;BME280;30388;52.038;-1.478;2023-05-23T05:24:48;66165.62;;;13.92;100.00
44675;BME280;30388;52.038;-1.478;2023-05-23T05:27:15;66179.23;;;13.87;100.00
44675;BME280;30388;52.038;-1.478;2023-05-23T05:29:42;66180.75;;;13.89;100.00
44675;BME280;30388;52.038;-1.478;2023-05-23T05:32:10;66198.57;;;14.12;100.00
44675;BME280;30388;52.038;-1.478;2023-05-23T05:34:37;66218.72;;;14.37;100.00
44675;BME280;30388;52.038;-1.478;2023-05-23T05:37:04;66204.43;;;14.19;100.00
44675;BME280;30388;52.038;-1.478;2023-05-23T05:39:33;66196.72;;;14.32;100.00
44675;BME280;30388;52.038;-1.478;2023-05-23T05:42:00;66256.44;;;14.63;100.00
44675;BME280;30388;52.038;-1.478;2023-05-23T05:44:27;66248.32;;;14.53;100.00
44675;BME280;30388;52.038;-1.478;2023-05-23T05:46:54;66258.12;;;14.88;100.00
44675;BME280;30388;52.038;-1.478;2023-05-23T05:49:22;66297.89;;;14.88;100.00
44675;BME280;30388;52.038;-1.478;2023-05-23T05:51:49;66335.21;;;15.13;100.00
44675;BME280;30388;52.038;-1.478;2023-05-23T05:54:17;66353.26;;;15.36;100.00
44675;BME280;30388;52.038;-1.478;2023-05-23T05:56:45;66346.71;;;15.27;100.00
44675;BME280;30388;52.038;-1.478;2023-05-23T05:59:12;66351.18;;;15.55;100.00
44675;BME280;30388;52.038;-1.478;2023-05-23T06:01:39;66363.35;;;15.49;100.00
44675;BME280;30388;52.038;-1.478;2023-05-23T06:04:07;66288.48;;;15.03;100.00
44675;BME280;30388;52.038;-1.478;2023-05-23T06:06:34;66332.64;;;15.32;100.00
44675;BME280;30388;52.038;-1.478;2023-05-23T06:09:02;66375.79;;;15.64;100.00
44675;BME280;30388;52.038;-1.478;2023-05-23T06:11:29;66398.21;;;15.92;100.00
44675;BME280;30388;52.038;-1.478;2023-05-23T06:13:57;66389.57;;;16.04;100.00
44675;BME280;30388;52.038;-1.478;2023-05-23T06:16:24;66402.34;;;15.98;100.00
44675;BME280;30388;52.038;-1.478;2023-05-23T06:18:52;66331.03;;;15.57;100.00
44675;BME280;30388;52.038;-1.478;2023-05-23T06:21:19;66339.40;;;15.67;100.00
44675;BME280;30388;52.038;-1.478;2023-05-23T06:23:46;66287.24;;;15.02;100.00
44675;BME280;30388;52.038;-1.478;2023-05-23T06:26:13;66348.23;;;15.52;100.00
44675;BME280;30388;52.038;-1.478;2023-05-23T06:28:41;66266.81;;;14.27;100.00
44675;BME280;30388;52.038;-1.478;2023-05-23T06:31:09;66313.01;;;15.08;100.00
44675;BME280;30388;52.038;-1.478;2023-05-23T06:33:36;66356.65;;;15.89;100.00
44675;BME280;30388;52.038;-1.478;2023-05-23T06:36:03;66286.52;;;14.75;100.00
44675;BME280;30388;52.038;-1.478;2023-05-23T06:38:31;66300.41;;;15.18;100.00
44675;BME280;30388;52.038;-1.478;2023-05-23T06:40:58;66328.22;;;15.26;100.00
44675;BME280;30388;52.038;-1.478;2023-05-23T06:43:26;66294.16;;;15.11;100.00
44675;BME280;30388;52.038;-1.478;2023-05-23T06:45:53;66281.41;;;14.95;100.00
44675;BME280;30388;52.038;-1.478;2023-05-23T06:48:21;66244.53;;;14.48;100.00
44675;BME280;30388;52.038;-1.478;2023-05-23T06:50:49;66263.68;;;14.72;100.00
44675;BME280;30388;52.038;-1.478;2023-05-23T06:53:16;66277.20;;;14.62;100.00
44675;BME280;30388;52.038;-1.478;2023-05-23T06:55:43;66287.55;;;15.02;100.00
44675;BME280;30388;52.038;-1.478;2023-05-23T06:58:11;66258.70;;;14.88;100.00
44675;BME280;30388;52.038;-1.478;2023-05-23T07:00:38;66274.41;;;14.86;100.00
44675;BME280;30388;52.038;-1.478;2023-05-23T07:03:06;66306.33;;;14.77;100.00
44675;BME280;30388;52.038;-1.478;2023-05-23T07:05:34;66287.89;;;14.77;100.00
44675;BME280;30388;52.038;-1.478;2023-05-23T07:08:01;66299.95;;;15.18;100.00
44675;BME280;30388;52.038;-1.478;2023-05-23T07:10:28;66306.87;;;15.27;100.00
44675;BME280;30388;52.038;-1.478;2023-05-23T07:12:55;66330.08;;;15.07;100.00
44675;BME280;30388;52.038;-1.478;2023-05-23T07:15:22;66328.74;;;15.05;100.00
44675;BME280;30388;52.038;-1.478;2023-05-23T07:17:50;66280.60;;;14.67;100.00
44675;BME280;30388;52.038;-1.478;2023-05-23T07:20:17;66368.66;;;15.55;100.00
44675;BME280;30388;52.038;-1.478;2023-05-23T07:22:45;66307.18;;;14.78;100.00
44675;BME280;30388;52.038;-1.478;2023-05-23T07:25:13;66391.40;;;15.83;100.00
44675;BME280;30388;52.038;-1.478;2023-05-23T07:27:40;66401.87;;;15.97;100.00
44675;BME280;30388;52.038;-1.478;2023-05-23T07:30:08;66312.48;;;14.85;100.00
44675;BME280;30388;52.038;-1.478;2023-05-23T07:32:35;66364.02;;;15.49;100.00
44675;BME280;30388;52.038;-1.478;2023-05-23T07:35:03;66350.76;;;15.33;100.00
44675;BME280;30388;52.038;-1.478;2023-05-23T07:37:30;66408.74;;;16.07;100.00
44675;BME280;30388;52.038;-1.478;2023-05-23T07:39:58;66404.71;;;16.00;100.00
44675;BME280;30388;52.038;-1.478;2023-05-23T07:42:25;66396.15;;;15.90;100.00
44675;BME280;30388;52.038;-1.478;2023-05-23T07:44:52;66418.99;;;16.18;100.00
44675;BME280;30388;52.038;-1.478;2023-05-23T07:47:20;66425.82;;;16.01;100.00
44675;BME280;30388;52.038;-1.478;2023-05-23T07:49:48;66512.33;;;17.36;100.00
44675;BME280;30388;52.038;-1.478;2023-05-23T07:52:15;66484.72;;;16.52;100.00
44675;BME280;30388;52.038;-1.478;2023-05-23T07:54:42;66498.97;;;16.70;100.00
44675;BME280;30388;52.038;-1.478;2023-05-23T07:57:09;66475.02;;;16.62;100.00
44675;BME280;30388;52.038;-1.478;2023-05-23T07:59:37;66439.62;;;16.17;100.00
44675;BME280;30388;52.038;-1.478;2023-05-23T08:02:05;66481.98;;;16.49;100.00
44675;BME280;30388;52.038;-1.478;2023-05-23T08:04:33;66551.55;;;17.36;100.00
44675;BME280;30388;52.038;-1.478;2023-05-23T08:07:00;66547.27;;;17.08;100.00
44675;BME280;30388;52.038;-1.478;2023-05-23T08:09:28;66472.66;;;16.15;100.00
44675;BME280;30388;52.038;-1.478;2023-05-23T08:11:55;66543.91;;;17.04;100.00
44675;BME280;30388;52.038;-1.478;2023-05-23T08:14:23;66567.63;;;17.34;100.00
44675;BME280;30388;52.038;-1.478;2023-05-23T08:16:50;66592.83;;;17.88;100.00
44675;BME280;30388;52.038;-1.478;2023-05-23T08:19:17;66618.76;;;17.72;100.00
44675;BME280;30388;52.038;-1.478;2023-05-23T08:21:45;66582.32;;;17.25;100.00
44675;BME280;30388;52.038;-1.478;2023-05-23T08:24:12;66630.38;;;18.13;100.00
44675;BME280;30388;52.038;-1.478;2023-05-23T08:26:39;66589.40;;;17.84;100.00
44675;BME280;30388;52.038;-1.478;2023-05-23T08:29:07;66558.10;;;17.22;100.00
44675;BME280;30388;52.038;-1.478;2023-05-23T08:31:35;66579.53;;;17.49;100.00
44675;BME280;30388;52.038;-1.478;2023-05-23T08:34:02;66632.79;;;18.16;100.00
44675;BME280;30388;52.038;-1.478;2023-05-23T08:36:30;66635.55;;;17.93;100.00
44675;BME280;30388;52.038;-1.478;2023-05-23T08:38:57;66697.51;;;18.97;100.00
44675;BME280;30388;52.038;-1.478;2023-05-23T08:41:25;66724.14;;;19.03;100.00
44675;BME280;30388;52.038;-1.478;2023-05-23T08:43:53;66644.01;;;18.03;100.00
44675;BME280;30388;52.038;-1.478;2023-05-23T08:46:22;66549.67;;;16.84;100.00
44675;BME280;30388;52.038;-1.478;2023-05-23T08:48:51;66474.66;;;16.16;100.00
44675;BME280;30388;52.038;-1.478;2023-05-23T08:51:21;66531.96;;;16.89;100.00
44675;BME280;30388;52.038;-1.478;2023-05-23T08:53:48;66390.84;;;15.34;100.00
44675;BME280;30388;52.038;-1.478;2023-05-23T08:56:16;66401.07;;;15.69;100.00
44675;BME280;30388;52.038;-1.478;2023-05-23T08:58:43;66483.32;;;16.72;100.00
44675;BME280;30388;52.038;-1.478;2023-05-23T09:01:12;66453.12;;;16.34;100.00
44675;BME280;30388;52.038;-1.478;2023-05-23T09:03:40;66553.87;;;17.39;100.00
44675;BME280;30388;52.038;-1.478;2023-05-23T09:06:08;66514.37;;;16.89;100.00
44675;BME280;30388;52.038;-1.478;2023-05-23T09:08:37;66467.15;;;16.52;100.00
44675;BME280;30388;52.038;-1.478;2023-05-23T09:11:05;66440.96;;;16.19;100.00
44675;BME280;30388;52.038;-1.478;2023-05-23T09:13:33;66431.62;;;16.07;100.00
44675;BME280;30388;52.038;-1.478;2023-05-23T09:16:02;66397.14;;;15.90;100.00
44675;BME280;30388;52.038;-1.478;2023-05-23T09:18:33;66410.39;;;16.07;100.00
44675;BME280;30388;52.038;-1.478;2023-05-23T09:21:01;66430.92;;;16.33;100.00
44675;BME280;30388;52.038;-1.478;2023-05-23T09:23:30;66436.84;;;16.41;100.00
44675;BME280;30388;52.038;-1.478;2023-05-23T09:26:02;66462.44;;;16.46;100.00
44675;BME280;30388;52.038;-1.478;2023-05-23T09:28:29;66468.22;;;16.31;100.00
44675;BME280;30388;52.038;-1.478;2023-05-23T09:30:58;66488.45;;;16.80;100.00
44675;BME280;30388;52.038;-1.478;2023-05-23T09:33:29;66493.11;;;16.63;100.00
44675;BME280;30388;52.038;-1.478;2023-05-23T09:35:59;66548.99;;;17.33;100.00
44675;BME280;30388;52.038;-1.478;2023-05-23T09:38:27;66562.41;;;17.50;100.00
44675;BME280;30388;52.038;-1.478;2023-05-23T09:40:56;66580.01;;;17.23;100.00
44675;BME280;30388;52.038;-1.478;2023-05-23T09:43:24;66686.77;;;18.58;100.00
44675;BME280;30388;52.038;-1.478;2023-05-23T09:45:53;66735.78;;;18.97;100.00
44675;BME280;30388;52.038;-1.478;2023-05-23T09:48:27;66732.38;;;18.92;100.00
44675;BME280;30388;52.038;-1.478;2023-05-23T09:50:55;66690.48;;;18.61;100.00
44675;BME280;30388;52.038;-1.478;2023-05-23T09:53:22;66614.37;;;17.66;100.00
44675;BME280;30388;52.038;-1.478;2023-05-23T09:55:50;66677.15;;;18.23;100.00
44675;BME280;30388;52.038;-1.478;2023-05-23T09:58:18;66733.95;;;19.16;100.00
44675;BME280;30388;52.038;-1.478;2023-05-23T10:00:48;66696.51;;;18.69;100.00
44675;BME280;30388;52.038;-1.478;2023-05-23T10:03:16;66688.40;;;18.60;100.00
44675;BME280;30388;52.038;-1.478;2023-05-23T10:05:49;66719.61;;;18.98;100.00
44675;BME280;30388;52.038;-1.478;2023-05-23T10:08:23;66774.41;;;19.67;100.00
44675;BME280;30388;52.038;-1.478;2023-05-23T10:11:51;66794.59;;;19.43;100.00
44675;BME280;30388;52.038;-1.478;2023-05-23T10:14:30;66798.45;;;19.48;100.00
44675;BME280;30388;52.038;-1.478;2023-05-23T10:17:02;66836.71;;;19.74;100.00
44675;BME280;30388;52.038;-1.478;2023-05-23T10:19:39;66872.92;;;19.97;100.00
44675;BME280;30388;52.038;-1.478;2023-05-23T10:22:10;66962.32;;;21.08;100.00
44675;BME280;30388;52.038;-1.478;2023-05-23T10:24:39;66848.83;;;19.66;100.00
44675;BME280;30388;52.038;-1.478;2023-05-23T10:27:06;66802.53;;;19.53;100.00
44675;BME280;30388;52.038;-1.478;2023-05-23T10:29:34;66736.49;;;18.70;100.00
44675;BME280;30388;52.038;-1.478;2023-05-23T10:32:03;66863.02;;;20.29;100.00
44675;BME280;30388;52.038;-1.478;2023-05-23T10:34:36;66820.66;;;19.53;100.00
44675;BME280;30388;52.038;-1.478;2023-05-23T10:37:09;66767.91;;;19.10;100.00
44675;BME280;30388;52.038;-1.478;2023-05-23T10:39:48;66873.08;;;20.41;100.00
44675;BME280;30388;52.038;-1.478;2023-05-23T10:42:21;66884.78;;;20.12;100.00
44675;BME280;30388;52.038;-1.478;2023-05-23T10:45:13;66947.15;;;20.63;100.00
44675;BME280;30388;52.038;-1.478;2023-05-23T10:47:42;66923.60;;;20.61;100.00
44675;BME280;30388;52.038;-1.478;2023-05-23T10:50:12;66897.63;;;20.27;100.00
44675;BME280;30388;52.038;-1.478;2023-05-23T10:52:40;66920.10;;;20.56;100.00
44675;BME280;30388;52.038;-1.478;2023-05-23T10:55:12;66884.87;;;20.12;100.00
44675;BME280;30388;52.038;-1.478;2023-05-23T10:58:10;66883.41;;;20.32;100.00
44675;BME280;30388;52.038;-1.478;2023-05-23T11:00:37;66881.07;;;20.07;100.00
44675;BME280;30388;52.038;-1.478;2023-05-23T11:03:05;66864.85;;;20.08;100.00
44675;BME280;30388;52.038;-1.478;2023-05-23T11:05:32;66873.03;;;19.96;100.00
44675;BME280;30388;52.038;-1.478;2023-05-23T11:08:08;66856.84;;;19.99;100.00
44675;BME280;30388;52.038;-1.478;2023-05-23T11:11:02;66860.02;;;19.81;100.00
44675;BME280;30388;52.038;-1.478;2023-05-23T11:13:54;66848.37;;;19.88;100.00
44675;BME280;30388;52.038;-1.478;2023-05-23T11:16:23;66846.85;;;20.09;100.00
44675;BME280;30388;52.038;-1.478;2023-05-23T11:18:51;66745.78;;;18.82;100.00
44675;BME280;30388;52.038;-1.478;2023-05-23T11:21:19;66846.81;;;19.86;100.00
44675;BME280;30388;52.038;-1.478;2023-05-23T11:23:46;66818.40;;;19.51;100.00
44675;BME280;30388;52.038;-1.478;2023-05-23T11:26:35;66835.26;;;19.94;100.00
44675;BME280;30388;52.038;-1.478;2023-05-23T11:29:07;66888.66;;;20.61;100.00
44675;BME280;30388;52.038;-1.478;2023-05-23T11:31:37;66858.69;;;20.01;100.00
44675;BME280;30388;52.038;-1.478;2023-05-23T11:34:04;66838.08;;;19.53;100.00
44675;BME280;30388;52.038;-1.478;2023-05-23T11:36:33;66876.95;;;20.24;100.00
44675;BME280;30388;52.038;-1.478;2023-05-23T11:39:02;66945.18;;;20.87;100.00
44675;BME280;30388;52.038;-1.478;2023-05-23T11:41:30;66997.68;;;21.53;100.00
44675;BME280;30388;52.038;-1.478;2023-05-23T11:43:57;66955.90;;;21.00;100.00
44675;BME280;30388;52.038;-1.478;2023-05-23T11:46:24;66892.56;;;20.22;100.00
44675;BME280;30388;52.038;-1.478;2023-05-23T11:48:52;66947.92;;;20.90;100.00
44675;BME280;30388;52.038;-1.478;2023-05-23T11:51:20;66891.17;;;20.19;100.00
44675;BME280;30388;52.038;-1.478;2023-05-23T11:53:47;66981.12;;;21.32;100.00
44675;BME280;30388;52.038;-1.478;2023-05-23T11:56:15;66965.06;;;20.85;100.00
44675;BME280;30388;52.038;-1.478;2023-05-23T11:58:42;67002.36;;;21.32;100.00
44675;BME280;30388;52.038;-1.478;2023-05-23T12:01:11;66993.22;;;20.98;100.00
44675;BME280;30388;52.038;-1.478;2023-05-23T12:03:45;66989.00;;;21.14;100.00
44675;BME280;30388;52.038;-1.478;2023-05-23T12:06:14;66954.43;;;20.98;100.00
44675;BME280;30388;52.038;-1.478;2023-05-23T12:08:41;66983.76;;;21.35;100.00
44675;BME280;30388;52.038;-1.478;2023-05-23T12:11:08;66888.42;;;19.89;100.00
44675;BME280;30388;52.038;-1.478;2023-05-23T12:13:35;66906.36;;;20.38;100.00
44675;BME280;30388;52.038;-1.478;2023-05-23T12:16:02;66813.12;;;19.21;100.00
44675;BME280;30388;52.038;-1.478;2023-05-23T12:18:31;66885.26;;;20.34;100.00
44675;BME280;30388;52.038;-1.478;2023-05-23T12:21:00;66944.10;;;20.85;100.00
44675;BME280;30388;52.038;-1.478;2023-05-23T12:23:28;66943.35;;;20.85;100.00
44675;BME280;30388;52.038;-1.478;2023-05-23T12:25:55;66905.28;;;20.37;100.00
44675;BME280;30388;52.038;-1.478;2023-05-23T12:28:34;66991.77;;;21.18;100.00
44675;BME280;30388;52.038;-1.478;2023-05-23T12:31:10;66981.72;;;21.06;100.00
44675;BME280;30388;52.038;-1.478;2023-05-23T12:33:38;67075.85;;;22.01;100.00
44675;BME280;30388;52.038;-1.478;2023-05-23T12:36:06;67001.66;;;21.09;100.00
44675;BME280;30388;52.038;-1.478;2023-05-23T12:38:34;67024.92;;;21.37;100.00
44675;BME280;30388;52.038;-1.478;2023-05-23T12:41:10;67077.54;;;22.03;100.00
44675;BME280;30388;52.038;-1.478;2023-05-23T12:43:38;67070.02;;;21.95;100.00
44675;BME280;30388;52.038;-1.478;2023-05-23T12:46:05;67055.29;;;21.76;100.00
44675;BME280;30388;52.038;-1.478;2023-05-23T12:48:34;67047.61;;;21.89;100.00